createdAt,value
2022-11-22T00:02:03.743Z,-1.60
2022-11-22T00:04:33.407Z,-1.70
2022-11-22T00:07:03.660Z,-1.80
2022-11-22T00:09:32.960Z,-1.80
2022-11-22T00:12:04.585Z,-1.80
2022-11-22T00:14:34.388Z,-1.90
2022-11-22T00:17:04.098Z,-1.90
2022-11-22T00:19:33.768Z,-1.90
2022-11-22T00:22:03.769Z,-2.00
2022-11-22T00:24:33.084Z,-2.00
2022-11-22T00:27:04.468Z,-2.00
2022-11-22T00:29:33.618Z,-2.00
2022-11-22T00:32:03.679Z,-2.00
2022-11-22T00:34:33.074Z,-2.00
2022-11-22T00:37:03.322Z,-1.90
2022-11-22T00:39:32.976Z,-1.90
2022-11-22T00:42:04.902Z,-1.90
2022-11-22T00:44:34.042Z,-1.80
2022-11-22T00:47:03.927Z,-1.90
2022-11-22T00:49:33.359Z,-1.80
2022-11-22T00:52:03.635Z,-1.80
2022-11-22T00:54:33.161Z,-1.90
2022-11-22T00:57:04.615Z,-1.80
2022-11-22T00:59:34.208Z,-1.80
2022-11-22T01:02:04.243Z,-1.90
2022-11-22T01:04:33.902Z,-1.80
2022-11-22T01:07:04.524Z,-1.80
2022-11-22T01:09:33.991Z,-1.80
2022-11-22T01:12:05.837Z,-1.70
2022-11-22T01:14:34.806Z,-1.70
2022-11-22T01:17:04.704Z,-1.60
2022-11-22T01:19:34.365Z,-1.50
2022-11-22T01:22:04.271Z,-1.50
2022-11-22T01:24:33.661Z,-1.60
2022-11-22T01:27:05.311Z,-1.60
2022-11-22T01:29:34.851Z,-1.70
2022-11-22T01:32:05.345Z,-1.70
2022-11-22T01:34:35.307Z,-1.60
2022-11-22T01:37:05.028Z,-1.60
2022-11-22T01:39:34.931Z,-1.60
2022-11-22T01:42:06.463Z,-1.50
2022-11-22T01:44:35.989Z,-1.60
2022-11-22T01:47:11.511Z,-1.50
2022-11-22T01:49:44.175Z,-1.50
2022-11-22T01:52:17.876Z,-1.50
2022-11-22T01:54:50.119Z,-1.50
2022-11-22T01:57:25.756Z,-1.50
2022-11-22T01:59:59.892Z,-1.50
2022-11-22T02:02:30.629Z,-1.50
2022-11-22T02:05:03.529Z,-1.50
2022-11-22T02:07:38.630Z,-1.50
2022-11-22T02:10:08.644Z,-1.50
2022-11-22T02:12:40.324Z,-1.50
2022-11-22T02:15:10.877Z,-1.50
2022-11-22T02:17:40.897Z,-1.50
2022-11-22T02:20:11.503Z,-1.50
2022-11-22T02:22:50.078Z,-1.40
2022-11-22T02:25:28.749Z,-1.40
2022-11-22T02:28:00.960Z,-1.40
2022-11-22T02:30:30.436Z,-1.30
2022-11-22T02:33:00.791Z,-1.30
2022-11-22T02:35:31.498Z,-1.30
2022-11-22T02:38:05.066Z,-1.40
2022-11-22T02:40:38.838Z,-1.40
2022-11-22T02:43:12.759Z,-1.30
2022-11-22T02:45:42.249Z,-1.30
2022-11-22T02:48:14.356Z,-1.20
2022-11-22T02:50:43.948Z,-1.20
2022-11-22T02:53:15.079Z,-1.30
2022-11-22T02:55:44.533Z,-1.30
2022-11-22T02:58:15.934Z,-1.30
2022-11-22T03:00:45.461Z,-1.30
2022-11-22T03:03:15.681Z,-1.20
2022-11-22T03:05:45.188Z,-1.20
2022-11-22T03:08:15.036Z,-1.20
2022-11-22T03:10:44.481Z,-1.20
2022-11-22T03:13:15.930Z,-1.20
2022-11-22T03:15:48.198Z,-1.30
2022-11-22T03:18:17.966Z,-1.30
2022-11-22T03:20:47.359Z,-1.30
2022-11-22T03:23:17.415Z,-1.20
2022-11-22T03:25:46.709Z,-1.20
2022-11-22T03:28:17.767Z,-1.30
2022-11-22T03:30:47.034Z,-1.30
2022-11-22T03:33:16.833Z,-1.30
2022-11-22T03:35:46.157Z,-1.20
2022-11-22T03:38:16.086Z,-1.20
2022-11-22T03:40:48.426Z,-1.20
2022-11-22T03:43:19.839Z,-1.20
2022-11-22T03:45:49.070Z,-1.20
2022-11-22T03:48:19.164Z,-1.20
2022-11-22T03:50:48.895Z,-1.10
2022-11-22T03:53:18.922Z,-1.10
2022-11-22T03:55:48.234Z,-1.10
2022-11-22T03:58:19.403Z,-1.10
2022-11-22T04:00:49.022Z,-1.10
2022-11-22T04:03:18.875Z,-1.10
2022-11-22T04:05:48.124Z,-1.10
2022-11-22T04:08:18.540Z,-1.10
2022-11-22T04:10:49.799Z,-1.00
2022-11-22T04:13:21.463Z,-1.10
2022-11-22T04:15:49.627Z,-1.00
2022-11-22T04:18:19.777Z,-1.00
2022-11-22T04:21:06.380Z,-1.00
2022-11-22T04:23:36.435Z,-1.00
2022-11-22T04:26:04.830Z,-1.00
2022-11-22T04:29:07.627Z,-1.00
2022-11-22T04:31:42.968Z,-1.00
2022-11-22T04:34:12.678Z,-1.00
2022-11-22T04:36:41.942Z,-0.90
2022-11-22T04:39:11.743Z,-0.90
2022-11-22T04:41:41.008Z,-0.90
2022-11-22T04:44:30.311Z,-0.90
2022-11-22T04:46:59.767Z,-0.90
2022-11-22T04:49:29.900Z,-0.80
2022-11-22T04:52:16.766Z,-0.80
2022-11-22T04:54:46.719Z,-0.80
2022-11-22T04:57:15.959Z,-0.80
2022-11-22T04:59:47.542Z,-0.80
2022-11-22T05:02:16.848Z,-0.70
2022-11-22T05:04:50.649Z,-0.70
2022-11-22T05:07:20.432Z,-0.70
2022-11-22T05:09:50.454Z,-0.70
2022-11-22T05:12:20.114Z,-0.70
2022-11-22T05:14:51.332Z,-0.70
2022-11-22T05:17:20.887Z,-0.70
2022-11-22T05:19:50.965Z,-0.60
2022-11-22T05:22:40.240Z,-0.60
2022-11-22T05:25:09.776Z,-0.60
2022-11-22T05:27:39.193Z,-0.60
2022-11-22T05:30:11.445Z,-0.60
2022-11-22T05:32:40.884Z,-0.50
2022-11-22T05:35:11.198Z,-0.50
2022-11-22T05:37:40.813Z,-0.50
2022-11-22T05:40:12.054Z,-0.50
2022-11-22T05:42:41.367Z,-0.50
2022-11-22T05:45:13.543Z,-0.50
2022-11-22T05:47:42.950Z,-0.50
2022-11-22T05:50:12.622Z,-0.50
2022-11-22T05:52:41.909Z,-0.50
2022-11-22T05:55:12.613Z,-0.50
2022-11-22T05:57:42.135Z,-0.50
2022-11-22T06:00:14.534Z,-0.40
2022-11-22T06:02:43.960Z,-0.40
2022-11-22T06:05:13.843Z,-0.40
2022-11-22T06:07:43.231Z,-0.40
2022-11-22T06:10:13.468Z,-0.40
2022-11-22T06:12:42.999Z,-0.40
2022-11-22T06:15:14.729Z,-0.30
2022-11-22T06:17:43.984Z,-0.30
2022-11-22T06:20:14.242Z,-0.30
2022-11-22T06:22:43.936Z,-0.30
2022-11-22T06:25:14.383Z,-0.30
2022-11-22T06:27:43.972Z,-0.30
2022-11-22T06:30:16.499Z,-0.20
2022-11-22T06:32:45.787Z,-0.30
2022-11-22T06:35:15.657Z,-0.30
2022-11-22T06:37:44.983Z,-0.30
2022-11-22T06:40:16.915Z,-0.30
2022-11-22T06:42:46.302Z,-0.40
2022-11-22T06:45:18.372Z,-0.40
2022-11-22T06:47:47.828Z,-0.40
2022-11-22T06:50:21.680Z,-0.30
2022-11-22T06:52:53.600Z,-0.30
2022-11-22T06:55:49.058Z,-0.30
2022-11-22T06:58:13.059Z,-0.30
2022-11-22T07:00:44.208Z,-0.30
2022-11-22T07:03:13.659Z,-0.30
2022-11-22T07:05:51.866Z,-0.20
2022-11-22T07:08:21.371Z,-0.20
2022-11-22T07:10:51.555Z,-0.20
2022-11-22T07:13:21.280Z,-0.20
2022-11-22T07:16:06.369Z,-0.20
2022-11-22T07:18:35.722Z,-0.20
2022-11-22T07:21:12.459Z,-0.20
2022-11-22T07:23:43.937Z,-0.20
2022-11-22T07:26:14.872Z,-0.20
2022-11-22T07:28:45.287Z,-0.10
2022-11-22T07:31:18.769Z,0.00
2022-11-22T07:33:48.698Z,0.00
2022-11-22T07:36:21.004Z,0.00
2022-11-22T07:38:50.873Z,-0.10
2022-11-22T07:41:22.548Z,-0.10
2022-11-22T07:43:53.293Z,-0.10
2022-11-22T07:46:29.589Z,-0.10
2022-11-22T07:48:59.533Z,-0.10
2022-11-22T07:51:30.033Z,-0.10
2022-11-22T07:54:00.004Z,-0.10
2022-11-22T07:56:29.932Z,-0.10
2022-11-22T07:58:59.325Z,0.00
2022-11-22T08:01:30.571Z,0.00
2022-11-22T08:04:00.042Z,0.00
2022-11-22T08:06:29.993Z,0.00
2022-11-22T08:09:02.191Z,0.10
2022-11-22T08:11:32.687Z,0.20
2022-11-22T08:14:01.980Z,0.10
2022-11-22T08:16:33.403Z,0.10
2022-11-22T08:19:02.929Z,0.10
2022-11-22T08:21:32.563Z,0.10
2022-11-22T08:24:01.890Z,0.10
2022-11-22T08:26:33.154Z,0.10
2022-11-22T08:29:07.731Z,0.10
2022-11-22T08:31:41.739Z,0.20
2022-11-22T08:34:11.491Z,0.20
2022-11-22T08:36:41.066Z,0.20
2022-11-22T08:39:10.515Z,0.20
2022-11-22T08:41:40.350Z,0.20
2022-11-22T08:44:09.976Z,0.20
2022-11-22T08:46:41.532Z,0.30
2022-11-22T08:49:12.916Z,0.30
2022-11-22T08:51:45.240Z,0.30
2022-11-22T08:54:15.630Z,0.20
2022-11-22T08:56:45.562Z,0.20
2022-11-22T08:59:14.960Z,0.30
2022-11-22T09:01:46.292Z,0.20
2022-11-22T09:04:15.474Z,0.20
2022-11-22T09:09:37.648Z,0.20
2022-11-22T09:12:12.872Z,0.30
2022-11-22T09:14:42.530Z,0.30
2022-11-22T09:17:17.900Z,0.40
2022-11-22T09:19:47.724Z,0.30
2022-11-22T09:22:17.345Z,0.30
2022-11-22T09:24:46.589Z,0.40
2022-11-22T09:27:16.697Z,0.40
2022-11-22T09:29:45.999Z,0.40
2022-11-22T09:32:17.176Z,0.40
2022-11-22T09:34:46.681Z,0.50
2022-11-22T09:37:18.814Z,0.40
2022-11-22T09:39:48.883Z,0.40
2022-11-22T09:42:46.295Z,0.50
2022-11-22T09:45:37.227Z,0.50
2022-11-22T09:48:25.416Z,0.60
2022-11-22T09:51:03.076Z,0.50
2022-11-22T09:53:40.268Z,0.50
2022-11-22T09:56:14.550Z,0.50
2022-11-22T09:58:49.374Z,0.50
2022-11-22T10:01:21.913Z,0.60
2022-11-22T10:03:57.639Z,0.50
2022-11-22T10:06:30.984Z,0.50
2022-11-22T10:09:11.027Z,0.60
2022-11-22T10:11:45.268Z,0.70
2022-11-22T10:14:31.887Z,0.60
2022-11-22T10:17:10.011Z,0.60
2022-11-22T10:19:46.698Z,0.60
2022-11-22T10:22:16.621Z,0.60
2022-11-22T10:24:46.660Z,0.70
2022-11-22T10:27:16.983Z,0.70
2022-11-22T10:29:49.875Z,0.60
2022-11-22T10:32:26.396Z,0.60
2022-11-22T10:35:20.639Z,0.50
2022-11-22T10:37:58.917Z,0.50
2022-11-22T10:40:38.839Z,0.50
2022-11-22T10:43:26.254Z,0.50
2022-11-22T10:46:03.923Z,0.50
2022-11-22T10:48:40.360Z,0.50
2022-11-22T10:51:22.257Z,0.50
2022-11-22T10:54:03.687Z,0.60
2022-11-22T10:56:38.035Z,0.70
2022-11-22T10:59:36.370Z,0.80
2022-11-22T11:02:22.599Z,0.80
2022-11-22T11:04:54.597Z,0.80
2022-11-22T11:07:27.219Z,0.90
2022-11-22T11:10:11.570Z,0.80
2022-11-22T11:12:46.844Z,0.80
2022-11-22T11:15:22.575Z,0.90
2022-11-22T11:17:59.680Z,0.80
2022-11-22T11:20:32.064Z,0.80
2022-11-22T11:23:18.948Z,0.90
2022-11-22T11:25:49.911Z,0.90
2022-11-22T11:28:22.745Z,0.80
2022-11-22T11:30:54.377Z,0.80
2022-11-22T11:33:28.733Z,0.90
2022-11-22T11:36:03.351Z,0.90
2022-11-22T11:38:37.699Z,0.90
2022-11-22T11:41:28.174Z,0.90
2022-11-22T11:43:59.567Z,0.90
2022-11-22T11:46:29.204Z,0.80
2022-11-22T11:49:11.218Z,0.70
2022-11-22T11:51:42.667Z,0.80
2022-11-22T11:54:17.332Z,0.80
2022-11-22T11:56:50.134Z,0.70
2022-11-22T11:59:21.250Z,0.70
2022-11-22T12:02:00.202Z,0.70
2022-11-22T12:04:32.863Z,0.70
2022-11-22T12:07:05.833Z,0.70
2022-11-22T12:09:44.631Z,0.70
2022-11-22T12:12:25.665Z,0.70
2022-11-22T12:15:11.105Z,0.70
2022-11-22T12:17:50.827Z,0.60
2022-11-22T12:20:25.127Z,0.60
2022-11-22T12:23:10.229Z,0.60
2022-11-22T12:25:42.785Z,0.60
2022-11-22T12:28:20.803Z,0.60
2022-11-22T12:30:57.684Z,0.60
2022-11-22T12:33:32.269Z,0.60
2022-11-22T12:36:05.503Z,0.60
2022-11-22T12:38:38.206Z,0.60
2022-11-22T12:41:13.953Z,0.70
2022-11-22T12:43:48.793Z,0.70
2022-11-22T12:46:25.932Z,0.70
2022-11-22T12:48:58.808Z,0.80
2022-11-22T12:51:36.292Z,0.80
2022-11-22T12:54:10.994Z,0.80
2022-11-22T12:56:49.994Z,0.80
2022-11-22T12:59:26.526Z,0.80
2022-11-22T13:02:05.176Z,0.80
2022-11-22T13:04:47.107Z,0.90
2022-11-22T13:07:21.692Z,1.00
2022-11-22T13:10:00.361Z,1.00
2022-11-22T13:12:35.999Z,1.00
2022-11-22T13:15:05.859Z,1.00
2022-11-22T13:17:38.942Z,1.00
2022-11-22T13:20:16.537Z,1.00
2022-11-22T13:22:59.587Z,1.10
2022-11-22T13:25:48.872Z,1.10
2022-11-22T13:28:23.442Z,1.10
2022-11-22T13:31:15.830Z,1.10
2022-11-22T13:33:55.485Z,1.00
2022-11-22T13:36:46.222Z,1.00
2022-11-22T13:39:20.895Z,1.00
2022-11-22T13:42:06.454Z,1.00
2022-11-22T13:44:51.334Z,1.00
2022-11-22T13:47:41.393Z,1.00
2022-11-22T13:50:50.400Z,1.00
2022-11-22T13:53:29.134Z,0.90
2022-11-22T13:56:00.900Z,1.00
2022-11-22T13:58:56.244Z,1.00
2022-11-22T14:01:58.440Z,1.00
2022-11-22T14:04:45.908Z,0.90
2022-11-22T14:07:37.998Z,1.00
2022-11-22T14:10:27.664Z,0.90
2022-11-22T14:13:27.944Z,1.10
2022-11-22T14:16:16.095Z,1.00
2022-11-22T14:18:58.977Z,1.10
2022-11-22T14:21:50.966Z,1.10
2022-11-22T14:24:33.516Z,1.00
2022-11-22T14:27:11.404Z,1.00
2022-11-22T14:30:09.197Z,1.00
2022-11-22T14:32:53.901Z,1.00
2022-11-22T14:35:31.501Z,0.90
2022-11-22T14:38:29.908Z,0.90
2022-11-22T14:41:36.595Z,0.80
2022-11-22T14:44:09.876Z,0.80
2022-11-22T14:46:53.075Z,0.80
2022-11-22T14:49:33.495Z,0.90
2022-11-22T14:52:07.049Z,0.90
2022-11-22T14:54:47.285Z,0.90
2022-11-22T14:57:18.657Z,0.90
2022-11-22T15:00:15.381Z,0.90
2022-11-22T15:03:35.501Z,0.90
2022-11-22T15:09:19.920Z,0.90
2022-11-22T15:09:50.845Z,0.90
2022-11-22T15:12:37.887Z,1.00
2022-11-22T15:57:30.186Z,1.10
2022-11-22T16:00:00.060Z,1.10
2022-11-22T16:02:32.700Z,1.10
2022-11-22T16:06:04.581Z,1.10
2022-11-22T16:07:57.046Z,1.10
2022-11-22T16:10:28.943Z,1.10
2022-11-22T16:13:13.699Z,1.10
2022-11-22T16:15:43.072Z,1.20
2022-11-22T16:18:17.597Z,1.10
2022-11-22T16:21:01.781Z,1.10
2022-11-22T16:23:33.502Z,1.20
2022-11-22T16:26:19.907Z,1.20
2022-11-22T16:28:52.837Z,1.20
2022-11-22T16:31:24.899Z,1.20
2022-11-22T16:33:56.802Z,1.30
2022-11-22T16:36:29.795Z,1.30
2022-11-22T16:39:00.000Z,1.30
2022-11-22T16:41:30.863Z,1.40
2022-11-22T16:44:05.587Z,1.30
2022-11-22T16:46:34.978Z,1.20
2022-11-22T16:49:13.100Z,1.30
2022-11-22T16:51:45.023Z,1.30
2022-11-22T16:54:17.699Z,1.40
2022-11-22T16:56:47.836Z,1.30
2022-11-22T16:59:19.387Z,1.30
2022-11-22T17:01:51.498Z,1.40
2022-11-22T17:04:25.509Z,1.30
2022-11-22T17:06:55.354Z,1.30
2022-11-22T17:09:25.217Z,1.30
2022-11-22T17:11:54.704Z,1.30
2022-11-22T17:14:26.572Z,1.30
2022-11-22T17:16:55.811Z,1.20
2022-11-22T17:19:54.476Z,1.20
2022-11-22T17:22:17.200Z,1.20
2022-11-22T17:24:47.042Z,1.30
2022-11-22T17:27:16.888Z,1.20
2022-11-22T17:29:50.750Z,1.30
2022-11-22T17:32:20.551Z,1.30
2022-11-22T17:34:50.311Z,1.20
2022-11-22T17:37:19.568Z,1.30
2022-11-22T17:39:53.185Z,1.30
2022-11-22T17:42:24.328Z,1.20
2022-11-22T17:44:56.175Z,1.20
2022-11-22T17:47:25.650Z,1.30
2022-11-22T17:49:55.584Z,1.20
2022-11-22T17:52:25.506Z,1.30
2022-11-22T17:54:58.381Z,1.30
2022-11-22T17:57:31.535Z,1.20
2022-11-22T18:00:02.896Z,1.20
2022-11-22T18:02:32.334Z,1.20
2022-11-22T18:05:06.063Z,1.20
2022-11-22T18:07:36.392Z,1.20
2022-11-22T18:10:08.046Z,1.20
2022-11-22T18:12:42.425Z,1.30
2022-11-22T18:15:18.463Z,1.20
2022-11-22T18:17:47.930Z,1.30
2022-11-22T18:20:18.220Z,1.20
2022-11-22T18:22:47.605Z,1.20
2022-11-22T18:25:17.495Z,1.20
2022-11-22T18:27:47.044Z,1.20
2022-11-22T18:30:19.095Z,1.30
2022-11-22T18:32:48.361Z,1.20
2022-11-22T18:35:18.257Z,1.20
2022-11-22T18:37:47.767Z,1.20
2022-11-22T18:40:18.584Z,1.20
2022-11-22T18:42:50.751Z,1.30
2022-11-22T18:45:23.427Z,1.30
2022-11-22T18:47:52.878Z,1.20
2022-11-22T18:50:22.495Z,1.20
2022-11-22T18:52:51.916Z,1.30
2022-11-22T18:55:21.833Z,1.20
2022-11-22T18:57:52.999Z,1.20
2022-11-22T19:00:24.736Z,1.30
2022-11-22T19:02:54.069Z,1.30
2022-11-22T19:05:24.720Z,1.30
2022-11-22T19:07:54.331Z,1.20
2022-11-22T19:10:24.513Z,1.20
2022-11-22T19:12:53.736Z,1.20
2022-11-22T19:15:25.359Z,1.20
2022-11-22T19:17:54.440Z,1.20
2022-11-22T19:20:53.424Z,1.20
2022-11-22T19:23:13.768Z,1.10
2022-11-22T19:25:44.315Z,1.20
2022-11-22T19:28:15.228Z,1.10
2022-11-22T19:30:46.459Z,1.10
2022-11-22T19:33:17.504Z,1.20
2022-11-22T19:35:57.885Z,1.20
2022-11-22T19:38:28.521Z,1.20
2022-11-22T19:40:58.485Z,1.10
2022-11-22T19:43:28.057Z,1.10
2022-11-22T19:46:03.655Z,1.20
2022-11-22T19:48:33.947Z,1.20
2022-11-22T19:51:07.311Z,1.10
2022-11-22T19:53:37.409Z,1.10
2022-11-22T19:56:09.091Z,1.10
2022-11-22T19:58:38.963Z,1.10
2022-11-22T20:01:13.857Z,1.10
2022-11-22T20:03:44.585Z,1.10
2022-11-22T20:06:16.429Z,1.10
2022-11-22T20:08:46.286Z,1.10
2022-11-22T20:11:17.945Z,1.00
2022-11-22T20:13:47.443Z,1.10
2022-11-22T20:16:22.322Z,1.00
2022-11-22T20:18:55.535Z,1.00
2022-11-22T20:21:26.739Z,1.00
2022-11-22T20:23:57.118Z,1.10
2022-11-22T20:26:27.277Z,1.10
2022-11-22T20:28:58.304Z,1.00
2022-11-22T20:31:31.713Z,1.10
2022-11-22T20:34:02.174Z,1.00
2022-11-22T20:36:32.661Z,1.00
2022-11-22T20:39:08.338Z,1.10
2022-11-22T20:41:39.752Z,1.00
2022-11-22T20:44:12.780Z,1.10
2022-11-22T20:46:45.499Z,1.10
2022-11-22T20:49:14.862Z,1.10
2022-11-22T20:51:44.987Z,1.10
2022-11-22T20:54:14.587Z,1.10
2022-11-22T20:56:44.227Z,1.10
2022-11-22T20:59:13.486Z,1.10
2022-11-22T21:01:45.336Z,1.10
2022-11-22T21:04:18.851Z,1.10
2022-11-22T21:06:50.974Z,1.10
2022-11-22T21:09:20.404Z,1.10
2022-11-22T21:11:50.376Z,1.00
2022-11-22T21:14:21.192Z,1.10
2022-11-22T21:16:52.266Z,1.10
2022-11-22T21:19:21.580Z,1.10
2022-11-22T21:21:51.427Z,1.10
2022-11-22T21:24:20.647Z,1.10
2022-11-22T21:26:51.633Z,1.10
2022-11-22T21:29:21.135Z,1.10
2022-11-22T21:31:52.482Z,1.10
2022-11-22T21:34:22.159Z,1.10
2022-11-22T21:36:52.060Z,1.10
2022-11-22T21:39:21.345Z,1.10
2022-11-22T21:41:51.520Z,1.10
2022-11-22T21:44:20.822Z,1.10
2022-11-22T21:46:52.520Z,1.10
2022-11-22T21:49:21.654Z,1.00
2022-11-22T21:51:51.401Z,1.00
2022-11-22T21:54:21.016Z,1.00
2022-11-22T21:56:51.001Z,1.00
2022-11-22T21:59:20.474Z,1.00
2022-11-22T22:01:51.639Z,1.00
2022-11-22T22:04:21.083Z,1.00
2022-11-22T22:06:51.061Z,1.00
2022-11-22T22:09:20.560Z,1.00
2022-11-22T22:11:50.568Z,1.00
2022-11-22T22:14:19.863Z,1.00
2022-11-22T22:16:49.801Z,1.00
2022-11-22T22:19:20.809Z,1.10
2022-11-22T22:21:50.637Z,1.10
2022-11-22T22:24:20.118Z,1.10
2022-11-22T22:26:50.180Z,1.10
2022-11-22T22:29:19.633Z,1.00
2022-11-22T22:31:49.366Z,1.10
2022-11-22T22:34:20.276Z,1.10
2022-11-22T22:36:50.086Z,1.00
2022-11-22T22:39:19.428Z,1.00
2022-11-22T22:41:49.623Z,1.00
2022-11-22T22:44:18.867Z,1.00
2022-11-22T22:46:48.503Z,1.00
2022-11-22T22:49:17.900Z,1.00
2022-11-22T22:51:51.682Z,1.10
2022-11-22T22:54:21.161Z,1.00
2022-11-22T22:56:51.052Z,1.00
2022-11-22T22:59:20.684Z,0.90
2022-11-22T23:01:50.536Z,0.90
2022-11-22T23:04:19.851Z,0.90
2022-11-22T23:06:51.290Z,0.90
2022-11-22T23:09:20.958Z,0.90
2022-11-22T23:12:07.819Z,0.90
2022-11-22T23:14:37.051Z,0.90
2022-11-22T23:17:06.747Z,0.90
2022-11-22T23:19:36.335Z,0.90
2022-11-22T23:22:07.704Z,1.00
2022-11-22T23:24:36.607Z,0.90
2022-11-22T23:27:06.428Z,0.90
2022-11-22T23:29:36.267Z,0.90
2022-11-22T23:32:06.642Z,0.90
2022-11-22T23:34:36.212Z,0.90
2022-11-22T23:37:07.304Z,1.00
2022-11-22T23:39:36.622Z,0.90
2022-11-22T23:42:06.727Z,1.00
2022-11-22T23:44:36.023Z,0.90
2022-11-22T23:47:05.974Z,0.90
2022-11-22T23:49:35.265Z,0.90
2022-11-22T23:52:05.037Z,0.90
2022-11-22T23:54:35.787Z,0.90
2022-11-22T23:57:05.284Z,0.80
2022-11-22T23:59:34.532Z,0.90
